sensor_id;sensor_type;location;lat;lon;timestamp;P1;durP1;ratioP1;P2;durP2;ratioP2
19800;SDS011;10060;48.274;12.214;2024-02-15T00:00:45;13.40;;;10.27;;
19800;SDS011;10060;48.274;12.214;2024-02-15T00:03:48;13.60;;;9.87;;
19800;SDS011;10060;48.274;12.214;2024-02-15T00:06:50;12.10;;;9.40;;
19800;SDS011;10060;48.274;12.214;2024-02-15T00:09:52;10.40;;;8.90;;
19800;SDS011;10060;48.274;12.214;2024-02-15T00:12:55;13.40;;;8.73;;
19800;SDS011;10060;48.274;12.214;2024-02-15T00:15:58;11.47;;;8.33;;
19800;SDS011;10060;48.274;12.214;2024-02-15T00:19:01;15.00;;;8.87;;
19800;SDS011;10060;48.274;12.214;2024-02-15T00:22:03;12.10;;;8.13;;
19800;SDS011;10060;48.274;12.214;2024-02-15T00:25:05;9.40;;;7.00;;
19800;SDS011;10060;48.274;12.214;2024-02-15T00:28:09;9.03;;;6.97;;
19800;SDS011;10060;48.274;12.214;2024-02-15T00:31:12;10.83;;;7.90;;
19800;SDS011;10060;48.274;12.214;2024-02-15T00:34:15;9.67;;;7.70;;
19800;SDS011;10060;48.274;12.214;2024-02-15T00:37:17;8.53;;;6.70;;
19800;SDS011;10060;48.274;12.214;2024-02-15T00:40:19;8.33;;;6.33;;
19800;SDS011;10060;48.274;12.214;2024-02-15T00:43:22;8.80;;;7.00;;
19800;SDS011;10060;48.274;12.214;2024-02-15T00:46:25;8.53;;;6.67;;
19800;SDS011;10060;48.274;12.214;2024-02-15T00:49:29;9.40;;;6.30;;
19800;SDS011;10060;48.274;12.214;2024-02-15T00:52:32;7.60;;;6.07;;
19800;SDS011;10060;48.274;12.214;2024-02-15T00:55:34;8.40;;;6.60;;
19800;SDS011;10060;48.274;12.214;2024-02-15T00:58:36;9.33;;;7.20;;
19800;SDS011;10060;48.274;12.214;2024-02-15T01:01:40;8.73;;;7.00;;
19800;SDS011;10060;48.274;12.214;2024-02-15T01:04:42;8.77;;;7.13;;
19800;SDS011;10060;48.274;12.214;2024-02-15T01:07:45;9.67;;;7.27;;
19800;SDS011;10060;48.274;12.214;2024-02-15T01:10:49;11.87;;;7.20;;
19800;SDS011;10060;48.274;12.214;2024-02-15T01:13:52;8.37;;;6.33;;
19800;SDS011;10060;48.274;12.214;2024-02-15T01:16:56;7.30;;;5.73;;
19800;SDS011;10060;48.274;12.214;2024-02-15T01:19:58;9.13;;;6.30;;
19800;SDS011;10060;48.274;12.214;2024-02-15T01:23:00;6.47;;;5.47;;
19800;SDS011;10060;48.274;12.214;2024-02-15T01:26:02;6.13;;;5.53;;
19800;SDS011;10060;48.274;12.214;2024-02-15T01:29:05;10.37;;;7.30;;
19800;SDS011;10060;48.274;12.214;2024-02-15T01:32:13;9.90;;;7.57;;
19800;SDS011;10060;48.274;12.214;2024-02-15T01:35:15;7.63;;;5.80;;
19800;SDS011;10060;48.274;12.214;2024-02-15T01:38:17;8.57;;;6.27;;
19800;SDS011;10060;48.274;12.214;2024-02-15T01:41:19;8.23;;;6.20;;
19800;SDS011;10060;48.274;12.214;2024-02-15T01:44:22;9.87;;;7.33;;
19800;SDS011;10060;48.274;12.214;2024-02-15T01:47:26;8.50;;;7.47;;
19800;SDS011;10060;48.274;12.214;2024-02-15T01:50:28;11.20;;;7.20;;
19800;SDS011;10060;48.274;12.214;2024-02-15T01:53:30;8.93;;;7.40;;
19800;SDS011;10060;48.274;12.214;2024-02-15T01:56:32;9.87;;;7.57;;
19800;SDS011;10060;48.274;12.214;2024-02-15T01:59:35;9.30;;;7.00;;
19800;SDS011;10060;48.274;12.214;2024-02-15T02:02:38;10.70;;;6.93;;
19800;SDS011;10060;48.274;12.214;2024-02-15T02:05:42;9.40;;;6.43;;
19800;SDS011;10060;48.274;12.214;2024-02-15T02:08:44;10.20;;;6.50;;
19800;SDS011;10060;48.274;12.214;2024-02-15T02:11:46;8.93;;;6.60;;
19800;SDS011;10060;48.274;12.214;2024-02-15T02:14:50;7.93;;;6.07;;
19800;SDS011;10060;48.274;12.214;2024-02-15T02:17:54;7.90;;;6.73;;
19800;SDS011;10060;48.274;12.214;2024-02-15T02:20:56;8.93;;;6.43;;
19800;SDS011;10060;48.274;12.214;2024-02-15T02:23:58;9.67;;;7.23;;
19800;SDS011;10060;48.274;12.214;2024-02-15T02:27:04;9.53;;;7.27;;
19800;SDS011;10060;48.274;12.214;2024-02-15T02:30:12;8.53;;;7.27;;
19800;SDS011;10060;48.274;12.214;2024-02-15T02:33:15;10.40;;;7.80;;
19800;SDS011;10060;48.274;12.214;2024-02-15T02:36:18;10.07;;;8.17;;
19800;SDS011;10060;48.274;12.214;2024-02-15T02:39:20;12.93;;;8.43;;
19800;SDS011;10060;48.274;12.214;2024-02-15T02:42:24;9.47;;;7.70;;
19800;SDS011;10060;48.274;12.214;2024-02-15T02:45:26;9.70;;;8.10;;
19800;SDS011;10060;48.274;12.214;2024-02-15T02:48:28;9.37;;;7.63;;
19800;SDS011;10060;48.274;12.214;2024-02-15T02:51:31;10.23;;;7.50;;
19800;SDS011;10060;48.274;12.214;2024-02-15T02:54:33;10.03;;;7.60;;
19800;SDS011;10060;48.274;12.214;2024-02-15T02:57:37;8.03;;;7.23;;
19800;SDS011;10060;48.274;12.214;2024-02-15T03:00:39;11.37;;;7.43;;
19800;SDS011;10060;48.274;12.214;2024-02-15T03:03:42;9.60;;;7.90;;
19800;SDS011;10060;48.274;12.214;2024-02-15T03:06:44;9.97;;;7.73;;
19800;SDS011;10060;48.274;12.214;2024-02-15T03:09:47;10.33;;;7.87;;
19800;SDS011;10060;48.274;12.214;2024-02-15T03:12:51;13.37;;;7.43;;
19800;SDS011;10060;48.274;12.214;2024-02-15T03:15:53;12.07;;;7.63;;
19800;SDS011;10060;48.274;12.214;2024-02-15T03:18:55;8.63;;;7.27;;
19800;SDS011;10060;48.274;12.214;2024-02-15T03:21:57;10.77;;;6.90;;
19800;SDS011;10060;48.274;12.214;2024-02-15T03:25:00;7.50;;;6.37;;
19800;SDS011;10060;48.274;12.214;2024-02-15T03:28:04;8.63;;;5.70;;
19800;SDS011;10060;48.274;12.214;2024-02-15T03:31:06;9.20;;;6.67;;
19800;SDS011;10060;48.274;12.214;2024-02-15T03:34:08;8.37;;;6.73;;
19800;SDS011;10060;48.274;12.214;2024-02-15T03:37:10;11.63;;;7.57;;
19800;SDS011;10060;48.274;12.214;2024-02-15T03:40:13;11.53;;;7.87;;
19800;SDS011;10060;48.274;12.214;2024-02-15T03:43:16;10.80;;;7.50;;
19800;SDS011;10060;48.274;12.214;2024-02-15T03:46:18;11.00;;;7.70;;
19800;SDS011;10060;48.274;12.214;2024-02-15T03:49:21;9.77;;;7.60;;
19800;SDS011;10060;48.274;12.214;2024-02-15T03:52:23;9.60;;;7.87;;
19800;SDS011;10060;48.274;12.214;2024-02-15T03:55:25;10.40;;;7.70;;
19800;SDS011;10060;48.274;12.214;2024-02-15T03:58:28;10.17;;;8.00;;
19800;SDS011;10060;48.274;12.214;2024-02-15T04:01:32;12.07;;;7.87;;
19800;SDS011;10060;48.274;12.214;2024-02-15T04:04:34;10.73;;;7.83;;
19800;SDS011;10060;48.274;12.214;2024-02-15T04:07:37;10.70;;;7.27;;
19800;SDS011;10060;48.274;12.214;2024-02-15T04:10:39;7.57;;;6.67;;
19800;SDS011;10060;48.274;12.214;2024-02-15T04:13:42;8.10;;;6.00;;
19800;SDS011;10060;48.274;12.214;2024-02-15T04:16:45;10.00;;;6.50;;
19800;SDS011;10060;48.274;12.214;2024-02-15T04:19:47;8.30;;;6.27;;
19800;SDS011;10060;48.274;12.214;2024-02-15T04:22:50;6.63;;;5.80;;
19800;SDS011;10060;48.274;12.214;2024-02-15T04:25:52;7.20;;;5.73;;
19800;SDS011;10060;48.274;12.214;2024-02-15T04:28:56;9.30;;;5.87;;
19800;SDS011;10060;48.274;12.214;2024-02-15T04:31:58;7.57;;;6.17;;
19800;SDS011;10060;48.274;12.214;2024-02-15T04:35:00;7.83;;;6.27;;
19800;SDS011;10060;48.274;12.214;2024-02-15T04:38:03;8.27;;;7.33;;
19800;SDS011;10060;48.274;12.214;2024-02-15T04:41:08;8.70;;;7.10;;
19800;SDS011;10060;48.274;12.214;2024-02-15T04:44:11;8.23;;;7.23;;
19800;SDS011;10060;48.274;12.214;2024-02-15T04:47:16;7.10;;;6.37;;
19800;SDS011;10060;48.274;12.214;2024-02-15T04:50:18;7.83;;;6.47;;
19800;SDS011;10060;48.274;12.214;2024-02-15T04:53:20;9.23;;;6.63;;
19800;SDS011;10060;48.274;12.214;2024-02-15T04:56:23;8.63;;;6.47;;
19800;SDS011;10060;48.274;12.214;2024-02-15T04:59:26;8.37;;;6.70;;
19800;SDS011;10060;48.274;12.214;2024-02-15T05:02:29;7.37;;;6.33;;
19800;SDS011;10060;48.274;12.214;2024-02-15T05:05:31;9.87;;;5.70;;
19800;SDS011;10060;48.274;12.214;2024-02-15T05:08:33;5.77;;;5.20;;
19800;SDS011;10060;48.274;12.214;2024-02-15T05:11:37;5.87;;;4.77;;
19800;SDS011;10060;48.274;12.214;2024-02-15T05:14:42;5.13;;;4.30;;
19800;SDS011;10060;48.274;12.214;2024-02-15T05:17:44;6.47;;;4.63;;
19800;SDS011;10060;48.274;12.214;2024-02-15T05:20:47;7.57;;;5.60;;
19800;SDS011;10060;48.274;12.214;2024-02-15T05:23:49;7.67;;;5.90;;
19800;SDS011;10060;48.274;12.214;2024-02-15T05:26:52;8.53;;;6.40;;
19800;SDS011;10060;48.274;12.214;2024-02-15T05:29:56;10.70;;;6.23;;
19800;SDS011;10060;48.274;12.214;2024-02-15T05:32:58;8.17;;;6.50;;
19800;SDS011;10060;48.274;12.214;2024-02-15T05:36:01;9.10;;;6.90;;
19800;SDS011;10060;48.274;12.214;2024-02-15T05:39:03;7.97;;;7.17;;
19800;SDS011;10060;48.274;12.214;2024-02-15T05:42:06;8.50;;;6.67;;
19800;SDS011;10060;48.274;12.214;2024-02-15T05:48:27;8.93;;;6.93;;
19800;SDS011;10060;48.274;12.214;2024-02-15T05:51:29;8.10;;;6.40;;
19800;SDS011;10060;48.274;12.214;2024-02-15T05:54:33;7.40;;;6.07;;
19800;SDS011;10060;48.274;12.214;2024-02-15T05:57:36;6.40;;;5.80;;
19800;SDS011;10060;48.274;12.214;2024-02-15T06:00:39;8.00;;;6.27;;
19800;SDS011;10060;48.274;12.214;2024-02-15T06:03:42;9.10;;;6.10;;
19800;SDS011;10060;48.274;12.214;2024-02-15T06:06:45;7.33;;;6.47;;
19800;SDS011;10060;48.274;12.214;2024-02-15T06:09:48;7.63;;;6.07;;
19800;SDS011;10060;48.274;12.214;2024-02-15T06:12:50;7.57;;;6.13;;
19800;SDS011;10060;48.274;12.214;2024-02-15T06:15:53;6.97;;;6.07;;
19800;SDS011;10060;48.274;12.214;2024-02-15T06:18:56;6.43;;;5.57;;
19800;SDS011;10060;48.274;12.214;2024-02-15T06:21:59;7.00;;;5.80;;
19800;SDS011;10060;48.274;12.214;2024-02-15T06:25:02;9.50;;;6.13;;
19800;SDS011;10060;48.274;12.214;2024-02-15T06:28:05;8.13;;;6.23;;
19800;SDS011;10060;48.274;12.214;2024-02-15T06:31:19;7.77;;;5.60;;
19800;SDS011;10060;48.274;12.214;2024-02-15T06:34:42;8.00;;;6.07;;
19800;SDS011;10060;48.274;12.214;2024-02-15T06:38:02;8.17;;;5.73;;
19800;SDS011;10060;48.274;12.214;2024-02-15T06:41:24;7.93;;;5.90;;
19800;SDS011;10060;48.274;12.214;2024-02-15T06:44:28;11.00;;;6.13;;
19800;SDS011;10060;48.274;12.214;2024-02-15T06:47:30;7.00;;;5.60;;
19800;SDS011;10060;48.274;12.214;2024-02-15T06:50:33;6.10;;;5.50;;
19800;SDS011;10060;48.274;12.214;2024-02-15T06:53:38;5.87;;;5.27;;
19800;SDS011;10060;48.274;12.214;2024-02-15T06:56:40;6.37;;;5.33;;
19800;SDS011;10060;48.274;12.214;2024-02-15T06:59:46;8.30;;;5.63;;
19800;SDS011;10060;48.274;12.214;2024-02-15T07:02:48;9.60;;;5.83;;
19800;SDS011;10060;48.274;12.214;2024-02-15T07:05:51;8.20;;;6.47;;
19800;SDS011;10060;48.274;12.214;2024-02-15T07:08:53;11.30;;;7.13;;
19800;SDS011;10060;48.274;12.214;2024-02-15T07:11:57;20.07;;;11.50;;
19800;SDS011;10060;48.274;12.214;2024-02-15T07:15:00;16.33;;;9.53;;
19800;SDS011;10060;48.274;12.214;2024-02-15T07:18:04;11.03;;;7.43;;
19800;SDS011;10060;48.274;12.214;2024-02-15T07:21:08;10.77;;;6.90;;
19800;SDS011;10060;48.274;12.214;2024-02-15T07:24:13;11.33;;;6.97;;
19800;SDS011;10060;48.274;12.214;2024-02-15T07:27:15;8.93;;;6.60;;
19800;SDS011;10060;48.274;12.214;2024-02-15T07:30:18;9.23;;;7.27;;
19800;SDS011;10060;48.274;12.214;2024-02-15T07:33:20;9.80;;;6.97;;
19800;SDS011;10060;48.274;12.214;2024-02-15T07:36:24;9.00;;;7.30;;
19800;SDS011;10060;48.274;12.214;2024-02-15T07:39:27;10.43;;;7.90;;
19800;SDS011;10060;48.274;12.214;2024-02-15T07:42:29;11.10;;;8.27;;
19800;SDS011;10060;48.274;12.214;2024-02-15T07:45:31;10.60;;;8.23;;
19800;SDS011;10060;48.274;12.214;2024-02-15T07:48:35;11.07;;;9.47;;
19800;SDS011;10060;48.274;12.214;2024-02-15T07:51:39;11.67;;;9.13;;
19800;SDS011;10060;48.274;12.214;2024-02-15T07:54:42;13.90;;;10.23;;
19800;SDS011;10060;48.274;12.214;2024-02-15T07:57:44;12.23;;;9.90;;
19800;SDS011;10060;48.274;12.214;2024-02-15T08:00:48;10.83;;;8.47;;
19800;SDS011;10060;48.274;12.214;2024-02-15T08:03:50;12.03;;;9.43;;
19800;SDS011;10060;48.274;12.214;2024-02-15T08:06:54;11.97;;;8.40;;
19800;SDS011;10060;48.274;12.214;2024-02-15T08:09:56;8.40;;;6.70;;
19800;SDS011;10060;48.274;12.214;2024-02-15T08:12:58;9.00;;;6.80;;
19800;SDS011;10060;48.274;12.214;2024-02-15T08:16:00;10.83;;;6.80;;
19800;SDS011;10060;48.274;12.214;2024-02-15T08:19:05;9.23;;;6.57;;
19800;SDS011;10060;48.274;12.214;2024-02-15T08:22:09;7.40;;;6.27;;
19800;SDS011;10060;48.274;12.214;2024-02-15T08:25:12;8.27;;;6.33;;
19800;SDS011;10060;48.274;12.214;2024-02-15T08:28:15;7.90;;;6.50;;
19800;SDS011;10060;48.274;12.214;2024-02-15T08:31:17;7.13;;;6.17;;
19800;SDS011;10060;48.274;12.214;2024-02-15T08:34:20;6.87;;;6.10;;
19800;SDS011;10060;48.274;12.214;2024-02-15T08:37:23;8.23;;;6.40;;
19800;SDS011;10060;48.274;12.214;2024-02-15T08:40:25;7.87;;;6.23;;
19800;SDS011;10060;48.274;12.214;2024-02-15T08:43:27;9.33;;;7.10;;
19800;SDS011;10060;48.274;12.214;2024-02-15T08:46:29;7.60;;;6.27;;
19800;SDS011;10060;48.274;12.214;2024-02-15T08:49:31;7.53;;;6.17;;
19800;SDS011;10060;48.274;12.214;2024-02-15T08:52:35;7.63;;;6.17;;
19800;SDS011;10060;48.274;12.214;2024-02-15T08:55:38;6.27;;;5.33;;
19800;SDS011;10060;48.274;12.214;2024-02-15T08:58:40;13.43;;;7.93;;
19800;SDS011;10060;48.274;12.214;2024-02-15T09:01:42;8.73;;;6.40;;
19800;SDS011;10060;48.274;12.214;2024-02-15T09:04:46;7.30;;;6.20;;
19800;SDS011;10060;48.274;12.214;2024-02-15T09:07:49;9.13;;;7.23;;
19800;SDS011;10060;48.274;12.214;2024-02-15T09:10:51;9.77;;;6.70;;
19800;SDS011;10060;48.274;12.214;2024-02-15T09:13:54;14.50;;;7.13;;
19800;SDS011;10060;48.274;12.214;2024-02-15T09:16:58;9.30;;;6.90;;
19800;SDS011;10060;48.274;12.214;2024-02-15T09:20:00;7.67;;;6.60;;
19800;SDS011;10060;48.274;12.214;2024-02-15T09:23:03;8.83;;;6.60;;
19800;SDS011;10060;48.274;12.214;2024-02-15T09:26:09;10.83;;;7.07;;
19800;SDS011;10060;48.274;12.214;2024-02-15T09:29:11;12.03;;;7.00;;
19800;SDS011;10060;48.274;12.214;2024-02-15T09:32:15;9.20;;;6.10;;
19800;SDS011;10060;48.274;12.214;2024-02-15T09:35:17;14.03;;;6.83;;
19800;SDS011;10060;48.274;12.214;2024-02-15T09:38:20;8.43;;;6.23;;
19800;SDS011;10060;48.274;12.214;2024-02-15T09:41:22;6.27;;;5.00;;
19800;SDS011;10060;48.274;12.214;2024-02-15T09:44:25;7.97;;;5.57;;
19800;SDS011;10060;48.274;12.214;2024-02-15T09:47:30;8.57;;;5.70;;
19800;SDS011;10060;48.274;12.214;2024-02-15T09:50:36;8.30;;;6.70;;
19800;SDS011;10060;48.274;12.214;2024-02-15T09:53:43;9.80;;;5.03;;
19800;SDS011;10060;48.274;12.214;2024-02-15T09:56:46;6.40;;;4.60;;
19800;SDS011;10060;48.274;12.214;2024-02-15T09:59:48;6.30;;;4.37;;
19800;SDS011;10060;48.274;12.214;2024-02-15T10:02:50;6.07;;;4.30;;
19800;SDS011;10060;48.274;12.214;2024-02-15T10:05:55;6.20;;;4.40;;
19800;SDS011;10060;48.274;12.214;2024-02-15T10:12:16;4.57;;;3.67;;
19800;SDS011;10060;48.274;12.214;2024-02-15T10:15:27;4.10;;;3.30;;
19800;SDS011;10060;48.274;12.214;2024-02-15T10:18:30;4.00;;;3.20;;
19800;SDS011;10060;48.274;12.214;2024-02-15T10:21:32;5.90;;;2.93;;
19800;SDS011;10060;48.274;12.214;2024-02-15T10:24:35;3.47;;;2.60;;
19800;SDS011;10060;48.274;12.214;2024-02-15T10:27:41;3.40;;;2.50;;
19800;SDS011;10060;48.274;12.214;2024-02-15T10:30:43;3.60;;;2.70;;
19800;SDS011;10060;48.274;12.214;2024-02-15T10:33:48;1.83;;;1.57;;
19800;SDS011;10060;48.274;12.214;2024-02-15T10:36:50;3.93;;;1.83;;
19800;SDS011;10060;48.274;12.214;2024-02-15T10:40:00;4.73;;;2.10;;
19800;SDS011;10060;48.274;12.214;2024-02-15T10:43:07;2.70;;;2.17;;
19800;SDS011;10060;48.274;12.214;2024-02-15T10:46:10;2.97;;;1.90;;
19800;SDS011;10060;48.274;12.214;2024-02-15T10:49:14;4.40;;;2.37;;
19800;SDS011;10060;48.274;12.214;2024-02-15T10:52:16;2.63;;;2.00;;
19800;SDS011;10060;48.274;12.214;2024-02-15T10:55:21;2.78;;;1.50;;
19800;SDS011;10060;48.274;12.214;2024-02-15T10:58:26;6.90;;;1.65;;
19800;SDS011;10060;48.274;12.214;2024-02-15T11:01:35;3.28;;;1.75;;
19800;SDS011;10060;48.274;12.214;2024-02-15T11:04:38;2.88;;;1.77;;
19800;SDS011;10060;48.274;12.214;2024-02-15T11:07:43;4.53;;;2.00;;
19800;SDS011;10060;48.274;12.214;2024-02-15T11:10:46;2.47;;;2.05;;
19800;SDS011;10060;48.274;12.214;2024-02-15T11:13:49;3.83;;;2.20;;
19800;SDS011;10060;48.274;12.214;2024-02-15T11:16:52;3.15;;;1.80;;
19800;SDS011;10060;48.274;12.214;2024-02-15T11:19:54;2.90;;;1.77;;
19800;SDS011;10060;48.274;12.214;2024-02-15T11:22:56;3.08;;;1.63;;
19800;SDS011;10060;48.274;12.214;2024-02-15T11:25:59;3.03;;;1.80;;
19800;SDS011;10060;48.274;12.214;2024-02-15T11:29:02;1.88;;;1.42;;
19800;SDS011;10060;48.274;12.214;2024-02-15T11:32:04;1.70;;;1.60;;
19800;SDS011;10060;48.274;12.214;2024-02-15T11:35:07;3.58;;;1.70;;
19800;SDS011;10060;48.274;12.214;2024-02-15T11:38:26;6.03;;;1.92;;
19800;SDS011;10060;48.274;12.214;2024-02-15T11:41:29;2.40;;;1.52;;
19800;SDS011;10060;48.274;12.214;2024-02-15T11:44:32;2.72;;;1.60;;
19800;SDS011;10060;48.274;12.214;2024-02-15T11:47:36;2.47;;;1.92;;
19800;SDS011;10060;48.274;12.214;2024-02-15T11:50:38;2.58;;;1.73;;
19800;SDS011;10060;48.274;12.214;2024-02-15T11:53:41;2.47;;;1.70;;
19800;SDS011;10060;48.274;12.214;2024-02-15T11:56:50;2.22;;;1.42;;
19800;SDS011;10060;48.274;12.214;2024-02-15T11:59:55;1.75;;;1.50;;
19800;SDS011;10060;48.274;12.214;2024-02-15T12:03:13;2.90;;;1.63;;
19800;SDS011;10060;48.274;12.214;2024-02-15T12:06:33;2.40;;;1.30;;
19800;SDS011;10060;48.274;12.214;2024-02-15T12:09:57;2.95;;;2.08;;
19800;SDS011;10060;48.274;12.214;2024-02-15T12:13:17;3.63;;;1.50;;
19800;SDS011;10060;48.274;12.214;2024-02-15T12:16:38;4.45;;;1.67;;
19800;SDS011;10060;48.274;12.214;2024-02-15T12:19:59;2.40;;;1.70;;
19800;SDS011;10060;48.274;12.214;2024-02-15T12:23:06;7.65;;;2.35;;
19800;SDS011;10060;48.274;12.214;2024-02-15T12:26:09;3.40;;;1.90;;
19800;SDS011;10060;48.274;12.214;2024-02-15T12:29:16;3.67;;;2.30;;
19800;SDS011;10060;48.274;12.214;2024-02-15T12:32:21;7.97;;;2.40;;
19800;SDS011;10060;48.274;12.214;2024-02-15T12:35:23;1.73;;;1.63;;
19800;SDS011;10060;48.274;12.214;2024-02-15T12:38:25;4.22;;;1.98;;
19800;SDS011;10060;48.274;12.214;2024-02-15T12:41:27;2.38;;;1.95;;
19800;SDS011;10060;48.274;12.214;2024-02-15T12:44:30;4.32;;;1.90;;
19800;SDS011;10060;48.274;12.214;2024-02-15T12:47:36;10.45;;;2.00;;
19800;SDS011;10060;48.274;12.214;2024-02-15T12:50:38;3.22;;;2.65;;
19800;SDS011;10060;48.274;12.214;2024-02-15T12:53:40;5.75;;;2.13;;
19800;SDS011;10060;48.274;12.214;2024-02-15T12:56:42;8.05;;;3.20;;
19800;SDS011;10060;48.274;12.214;2024-02-15T12:59:44;9.88;;;3.30;;
19800;SDS011;10060;48.274;12.214;2024-02-15T13:02:49;3.50;;;2.30;;
19800;SDS011;10060;48.274;12.214;2024-02-15T13:05:51;3.47;;;2.45;;
19800;SDS011;10060;48.274;12.214;2024-02-15T13:08:53;4.70;;;2.65;;
19800;SDS011;10060;48.274;12.214;2024-02-15T13:11:55;2.67;;;2.40;;
19800;SDS011;10060;48.274;12.214;2024-02-15T13:14:58;2.67;;;2.00;;
19800;SDS011;10060;48.274;12.214;2024-02-15T13:18:02;4.05;;;2.40;;
19800;SDS011;10060;48.274;12.214;2024-02-15T13:21:04;3.00;;;2.38;;
19800;SDS011;10060;48.274;12.214;2024-02-15T13:24:06;3.40;;;2.38;;
19800;SDS011;10060;48.274;12.214;2024-02-15T13:27:11;4.95;;;2.45;;
19800;SDS011;10060;48.274;12.214;2024-02-15T13:30:13;3.97;;;2.60;;
19800;SDS011;10060;48.274;12.214;2024-02-15T13:33:22;5.13;;;2.70;;
19800;SDS011;10060;48.274;12.214;2024-02-15T13:36:26;3.58;;;2.35;;
19800;SDS011;10060;48.274;12.214;2024-02-15T13:39:28;4.18;;;2.00;;
19800;SDS011;10060;48.274;12.214;2024-02-15T13:42:33;3.72;;;2.17;;
19800;SDS011;10060;48.274;12.214;2024-02-15T13:45:38;5.53;;;3.63;;
19800;SDS011;10060;48.274;12.214;2024-02-15T13:48:41;5.30;;;2.40;;
19800;SDS011;10060;48.274;12.214;2024-02-15T13:51:44;3.13;;;2.30;;
19800;SDS011;10060;48.274;12.214;2024-02-15T13:54:46;3.73;;;2.03;;
19800;SDS011;10060;48.274;12.214;2024-02-15T13:57:48;2.45;;;2.05;;
19800;SDS011;10060;48.274;12.214;2024-02-15T14:00:50;3.80;;;2.38;;
19800;SDS011;10060;48.274;12.214;2024-02-15T14:03:54;7.28;;;2.83;;
19800;SDS011;10060;48.274;12.214;2024-02-15T14:06:56;33.33;;;6.35;;
19800;SDS011;10060;48.274;12.214;2024-02-15T14:09:58;3.03;;;2.50;;
19800;SDS011;10060;48.274;12.214;2024-02-15T14:13:00;5.05;;;2.30;;
19800;SDS011;10060;48.274;12.214;2024-02-15T14:16:02;3.03;;;2.40;;
19800;SDS011;10060;48.274;12.214;2024-02-15T14:19:06;4.88;;;2.65;;
19800;SDS011;10060;48.274;12.214;2024-02-15T14:22:08;4.28;;;2.72;;
19800;SDS011;10060;48.274;12.214;2024-02-15T14:25:16;6.25;;;2.65;;
19800;SDS011;10060;48.274;12.214;2024-02-15T14:28:18;5.28;;;2.60;;
19800;SDS011;10060;48.274;12.214;2024-02-15T14:31:20;11.55;;;2.67;;
19800;SDS011;10060;48.274;12.214;2024-02-15T14:34:41;6.85;;;2.70;;
19800;SDS011;10060;48.274;12.214;2024-02-15T14:37:43;7.43;;;2.40;;
19800;SDS011;10060;48.274;12.214;2024-02-15T14:40:46;8.65;;;2.38;;
19800;SDS011;10060;48.274;12.214;2024-02-15T14:43:50;9.07;;;2.75;;
19800;SDS011;10060;48.274;12.214;2024-02-15T14:46:54;3.45;;;1.98;;
19800;SDS011;10060;48.274;12.214;2024-02-15T14:49:58;2.70;;;2.17;;
19800;SDS011;10060;48.274;12.214;2024-02-15T14:53:00;4.07;;;2.45;;
19800;SDS011;10060;48.274;12.214;2024-02-15T14:56:02;3.67;;;2.10;;
19800;SDS011;10060;48.274;12.214;2024-02-15T14:59:06;4.50;;;2.30;;
19800;SDS011;10060;48.274;12.214;2024-02-15T15:02:09;3.60;;;2.30;;
19800;SDS011;10060;48.274;12.214;2024-02-15T15:05:13;4.23;;;2.37;;
19800;SDS011;10060;48.274;12.214;2024-02-15T15:08:33;3.47;;;2.20;;
19800;SDS011;10060;48.274;12.214;2024-02-15T15:11:52;4.15;;;2.45;;
19800;SDS011;10060;48.274;12.214;2024-02-15T15:15:12;4.45;;;2.33;;
19800;SDS011;10060;48.274;12.214;2024-02-15T15:18:15;3.85;;;2.40;;
19800;SDS011;10060;48.274;12.214;2024-02-15T15:21:19;3.45;;;2.70;;
19800;SDS011;10060;48.274;12.214;2024-02-15T15:24:21;6.80;;;2.30;;
19800;SDS011;10060;48.274;12.214;2024-02-15T15:27:23;4.43;;;2.75;;
19800;SDS011;10060;48.274;12.214;2024-02-15T15:30:25;3.70;;;2.92;;
19800;SDS011;10060;48.274;12.214;2024-02-15T15:33:28;3.03;;;2.67;;
19800;SDS011;10060;48.274;12.214;2024-02-15T15:36:31;4.55;;;2.92;;
19800;SDS011;10060;48.274;12.214;2024-02-15T15:39:33;5.07;;;2.90;;
19800;SDS011;10060;48.274;12.214;2024-02-15T15:42:36;6.03;;;2.45;;
19800;SDS011;10060;48.274;12.214;2024-02-15T15:45:38;10.65;;;3.83;;
19800;SDS011;10060;48.274;12.214;2024-02-15T15:48:41;5.90;;;2.27;;
19800;SDS011;10060;48.274;12.214;2024-02-15T15:51:44;6.27;;;2.60;;
19800;SDS011;10060;48.274;12.214;2024-02-15T15:54:47;5.63;;;2.83;;
19800;SDS011;10060;48.274;12.214;2024-02-15T15:57:50;4.67;;;2.67;;
19800;SDS011;10060;48.274;12.214;2024-02-15T16:00:52;2.73;;;2.37;;
19800;SDS011;10060;48.274;12.214;2024-02-15T16:03:54;4.50;;;3.00;;
19800;SDS011;10060;48.274;12.214;2024-02-15T16:06:57;5.67;;;2.33;;
19800;SDS011;10060;48.274;12.214;2024-02-15T16:09:59;7.33;;;4.40;;
19800;SDS011;10060;48.274;12.214;2024-02-15T16:13:02;3.47;;;2.83;;
19800;SDS011;10060;48.274;12.214;2024-02-15T16:16:05;3.00;;;2.37;;
19800;SDS011;10060;48.274;12.214;2024-02-15T16:19:07;6.40;;;2.90;;
19800;SDS011;10060;48.274;12.214;2024-02-15T16:22:11;3.67;;;2.40;;
19800;SDS011;10060;48.274;12.214;2024-02-15T16:25:13;5.80;;;2.73;;
19800;SDS011;10060;48.274;12.214;2024-02-15T16:28:15;4.53;;;2.77;;
19800;SDS011;10060;48.274;12.214;2024-02-15T16:31:17;4.43;;;2.80;;
19800;SDS011;10060;48.274;12.214;2024-02-15T16:34:20;7.67;;;2.40;;
19800;SDS011;10060;48.274;12.214;2024-02-15T16:37:24;4.30;;;2.77;;
19800;SDS011;10060;48.274;12.214;2024-02-15T16:40:26;3.80;;;3.13;;
19800;SDS011;10060;48.274;12.214;2024-02-15T16:43:28;4.13;;;3.30;;
19800;SDS011;10060;48.274;12.214;2024-02-15T16:46:31;4.10;;;3.27;;
19800;SDS011;10060;48.274;12.214;2024-02-15T16:49:33;6.37;;;3.77;;
19800;SDS011;10060;48.274;12.214;2024-02-15T16:52:38;4.93;;;3.60;;
19800;SDS011;10060;48.274;12.214;2024-02-15T16:55:40;6.47;;;4.10;;
19800;SDS011;10060;48.274;12.214;2024-02-15T16:58:43;4.47;;;3.83;;
19800;SDS011;10060;48.274;12.214;2024-02-15T17:01:45;9.47;;;4.90;;
19800;SDS011;10060;48.274;12.214;2024-02-15T17:04:48;9.37;;;4.43;;
19800;SDS011;10060;48.274;12.214;2024-02-15T17:07:51;6.10;;;4.57;;
19800;SDS011;10060;48.274;12.214;2024-02-15T17:10:56;7.80;;;4.77;;
19800;SDS011;10060;48.274;12.214;2024-02-15T17:13:58;13.03;;;5.70;;
19800;SDS011;10060;48.274;12.214;2024-02-15T17:17:01;7.50;;;5.67;;
19800;SDS011;10060;48.274;12.214;2024-02-15T17:20:03;8.63;;;4.83;;
19800;SDS011;10060;48.274;12.214;2024-02-15T17:23:15;11.33;;;5.30;;
19800;SDS011;10060;48.274;12.214;2024-02-15T17:26:17;6.53;;;4.77;;
19800;SDS011;10060;48.274;12.214;2024-02-15T17:29:20;6.93;;;5.60;;
19800;SDS011;10060;48.274;12.214;2024-02-15T17:32:22;9.97;;;6.03;;
19800;SDS011;10060;48.274;12.214;2024-02-15T17:35:24;8.43;;;5.73;;
19800;SDS011;10060;48.274;12.214;2024-02-15T17:38:27;9.97;;;6.10;;
19800;SDS011;10060;48.274;12.214;2024-02-15T17:41:30;11.60;;;6.53;;
19800;SDS011;10060;48.274;12.214;2024-02-15T17:44:32;9.57;;;6.30;;
19800;SDS011;10060;48.274;12.214;2024-02-15T17:47:34;10.37;;;6.30;;
19800;SDS011;10060;48.274;12.214;2024-02-15T17:50:36;8.20;;;6.13;;
19800;SDS011;10060;48.274;12.214;2024-02-15T17:53:39;10.37;;;6.53;;
19800;SDS011;10060;48.274;12.214;2024-02-15T17:56:43;12.43;;;7.17;;
19800;SDS011;10060;48.274;12.214;2024-02-15T17:59:45;12.50;;;7.23;;
19800;SDS011;10060;48.274;12.214;2024-02-15T18:02:47;12.60;;;7.70;;
19800;SDS011;10060;48.274;12.214;2024-02-15T18:05:51;17.33;;;7.37;;
19800;SDS011;10060;48.274;12.214;2024-02-15T18:08:54;9.80;;;5.53;;
19800;SDS011;10060;48.274;12.214;2024-02-15T18:11:56;9.20;;;5.13;;